createdAt,value
2018-05-17T00:02:21.749Z,1.50
2018-05-17T00:04:52.017Z,1.60
2018-05-17T00:07:23.355Z,1.70
2018-05-17T00:09:53.691Z,1.80
2018-05-17T00:12:24.003Z,1.50
2018-05-17T00:14:54.391Z,1.67
2018-05-17T00:17:24.784Z,1.67
2018-05-17T00:19:55.798Z,1.40
2018-05-17T00:22:25.911Z,1.50
2018-05-17T00:24:56.103Z,1.73
2018-05-17T00:27:26.560Z,1.53
2018-05-17T00:29:56.711Z,1.50
2018-05-17T00:32:26.929Z,1.43
2018-05-17T00:34:57.266Z,1.30
2018-05-17T00:37:27.383Z,1.63
2018-05-17T00:39:58.275Z,1.40
2018-05-17T00:42:28.329Z,1.40
2018-05-17T00:44:58.607Z,1.40
2018-05-17T00:47:29.805Z,1.60
2018-05-17T00:49:59.818Z,1.53
2018-05-17T00:52:30.041Z,1.53
2018-05-17T00:55:00.877Z,1.40
2018-05-17T00:57:32.355Z,1.27
2018-05-17T01:00:04.623Z,1.30
2018-05-17T01:02:37.803Z,1.40
2018-05-17T01:05:10.507Z,1.23
2018-05-17T01:07:41.717Z,1.00
2018-05-17T01:10:11.970Z,1.10
2018-05-17T01:12:43.257Z,1.43
2018-05-17T01:15:14.999Z,1.00
2018-05-17T01:17:45.405Z,1.33
2018-05-17T01:20:16.252Z,1.30
2018-05-17T01:22:50.487Z,1.30
2018-05-17T01:25:22.499Z,1.40
2018-05-17T01:27:54.088Z,1.10
2018-05-17T01:30:25.164Z,1.40
2018-05-17T01:32:55.752Z,1.17
2018-05-17T01:35:29.740Z,1.00
2018-05-17T01:38:11.942Z,1.20
2018-05-17T01:40:43.130Z,1.27
2018-05-17T01:43:14.604Z,1.13
2018-05-17T01:45:46.169Z,1.20
2018-05-17T01:48:18.572Z,1.27
2018-05-17T01:50:51.543Z,1.30
2018-05-17T01:53:26.098Z,1.27
2018-05-17T01:55:55.959Z,1.07
2018-05-17T01:58:28.328Z,1.20
2018-05-17T02:01:00.802Z,1.00
2018-05-17T02:03:31.116Z,1.10
2018-05-17T02:06:03.068Z,1.17
2018-05-17T02:08:34.250Z,1.03
2018-05-17T02:11:12.620Z,1.27
2018-05-17T02:16:24.685Z,1.43
2018-05-17T02:18:55.558Z,1.10
2018-05-17T02:21:27.782Z,1.20
2018-05-17T02:24:08.183Z,1.07
2018-05-17T02:26:42.003Z,1.10
2018-05-17T02:29:15.106Z,1.00
2018-05-17T02:34:29.635Z,1.10
2018-05-17T02:37:01.112Z,1.20
2018-05-17T02:39:36.424Z,1.03
2018-05-17T02:42:09.869Z,1.00
2018-05-17T02:44:43.773Z,0.87
2018-05-17T02:47:17.220Z,1.30
2018-05-17T02:49:50.156Z,1.20
2018-05-17T02:52:20.841Z,1.10
2018-05-17T02:54:59.111Z,1.13
2018-05-17T02:57:37.996Z,1.10
2018-05-17T03:00:15.578Z,1.10
2018-05-17T03:02:49.390Z,1.30
2018-05-17T03:05:27.063Z,1.20
2018-05-17T03:08:06.365Z,1.20
2018-05-17T03:10:47.336Z,1.43
2018-05-17T03:13:19.233Z,1.40
2018-05-17T03:15:49.667Z,1.20
2018-05-17T03:18:19.679Z,1.20
2018-05-17T03:20:49.940Z,1.33
2018-05-17T03:23:21.264Z,1.33
2018-05-17T03:25:51.787Z,1.20
2018-05-17T03:28:22.315Z,1.40
2018-05-17T03:30:52.872Z,1.30
2018-05-17T03:33:24.220Z,0.90
2018-05-17T03:35:54.802Z,1.60
2018-05-17T03:38:25.053Z,1.00
2018-05-17T03:40:55.311Z,1.27
2018-05-17T03:43:26.458Z,1.00
2018-05-17T03:45:56.636Z,1.20
2018-05-17T03:48:26.953Z,1.20
2018-05-17T03:50:57.978Z,1.20
2018-05-17T03:53:28.418Z,1.10
2018-05-17T03:55:58.731Z,1.10
2018-05-17T03:58:28.861Z,1.20
2018-05-17T04:01:10.284Z,1.20
2018-05-17T04:03:51.724Z,1.20
2018-05-17T04:06:33.475Z,1.30
2018-05-17T04:09:03.897Z,1.20
2018-05-17T04:11:34.903Z,1.13
2018-05-17T04:14:05.261Z,1.37
2018-05-17T04:16:36.592Z,1.40
2018-05-17T04:19:06.995Z,1.13
2018-05-17T04:21:37.925Z,1.30
2018-05-17T04:24:08.571Z,1.00
2018-05-17T04:26:39.279Z,1.10
2018-05-17T04:29:09.852Z,1.17
2018-05-17T04:31:41.021Z,1.20
2018-05-17T04:34:12.453Z,1.27
2018-05-17T04:36:44.130Z,1.37
2018-05-17T04:39:15.005Z,1.20
2018-05-17T04:41:45.178Z,1.33
2018-05-17T04:44:15.974Z,1.20
2018-05-17T04:46:46.819Z,1.17
2018-05-17T04:49:16.981Z,1.33
2018-05-17T04:51:48.340Z,1.10
2018-05-17T04:54:18.860Z,1.20
2018-05-17T04:56:50.119Z,1.40
2018-05-17T04:59:20.454Z,1.20
2018-05-17T05:01:51.164Z,1.43
2018-05-17T05:04:22.484Z,1.40
2018-05-17T05:06:53.192Z,1.10
2018-05-17T05:09:24.205Z,1.13
2018-05-17T05:11:56.624Z,1.30
2018-05-17T05:14:28.040Z,1.70
2018-05-17T05:16:58.644Z,1.20
2018-05-17T05:19:31.298Z,1.27
2018-05-17T05:22:02.427Z,1.10
2018-05-17T05:24:33.170Z,1.47
2018-05-17T05:27:04.579Z,1.50
2018-05-17T05:29:35.997Z,1.57
2018-05-17T05:32:06.615Z,1.50
2018-05-17T05:34:54.788Z,1.40
2018-05-17T05:37:35.755Z,1.30
2018-05-17T05:40:22.161Z,1.23
2018-05-17T05:42:53.819Z,1.30
2018-05-17T05:45:26.081Z,1.30
2018-05-17T05:47:57.244Z,1.40
2018-05-17T05:50:28.988Z,1.47
2018-05-17T05:52:59.893Z,1.47
2018-05-17T05:55:31.390Z,1.37
2018-05-17T05:58:02.976Z,1.30
2018-05-17T06:00:33.733Z,1.67
2018-05-17T06:03:05.023Z,1.40
2018-05-17T06:05:36.264Z,1.60
2018-05-17T06:08:08.085Z,1.40
2018-05-17T06:10:41.661Z,1.50
2018-05-17T06:13:24.046Z,1.50
2018-05-17T06:15:54.599Z,1.30
2018-05-17T06:18:25.052Z,1.50
2018-05-17T06:20:58.609Z,1.50
2018-05-17T06:23:32.924Z,2.03
2018-05-17T06:26:03.685Z,1.57
2018-05-17T06:28:34.093Z,1.40
2018-05-17T06:31:08.265Z,1.33
2018-05-17T06:37:29.197Z,1.47
2018-05-17T06:39:59.804Z,1.40
2018-05-17T06:42:30.130Z,1.57
2018-05-17T06:45:00.171Z,1.40
2018-05-17T06:47:30.646Z,1.70
2018-05-17T06:50:01.112Z,1.47
2018-05-17T06:52:31.500Z,1.30
2018-05-17T06:55:01.855Z,1.30
2018-05-17T06:57:33.771Z,1.40
2018-05-17T07:00:04.554Z,1.70
2018-05-17T07:02:35.837Z,1.60
2018-05-17T07:05:07.349Z,1.20
2018-05-17T07:07:38.221Z,1.30
2018-05-17T07:10:09.122Z,1.20
2018-05-17T07:12:40.211Z,1.37
2018-05-17T07:15:11.657Z,1.27
2018-05-17T07:17:47.487Z,1.20
2018-05-17T07:20:18.858Z,1.17
2018-05-17T07:22:50.965Z,1.30
2018-05-17T07:25:33.649Z,1.30
2018-05-17T07:28:06.631Z,1.07
2018-05-17T07:30:40.430Z,1.20
2018-05-17T07:33:15.053Z,1.27
2018-05-17T07:38:41.407Z,1.10
2018-05-17T07:44:13.280Z,1.50
2018-05-17T07:46:44.181Z,1.40
2018-05-17T07:49:17.136Z,1.10
2018-05-17T07:51:51.809Z,1.20
2018-05-17T07:57:13.435Z,1.13
2018-05-17T07:59:44.484Z,1.40
2018-05-17T08:02:16.980Z,1.37
2018-05-17T08:04:47.590Z,1.37
2018-05-17T08:10:03.108Z,1.20
2018-05-17T08:12:35.327Z,1.13
2018-05-17T08:15:06.461Z,1.00
2018-05-17T08:17:36.936Z,1.40
2018-05-17T08:20:07.247Z,1.30
2018-05-17T08:22:37.537Z,1.20
2018-05-17T08:25:07.799Z,1.10
2018-05-17T08:27:38.642Z,1.30
2018-05-17T08:30:09.146Z,0.93
2018-05-17T08:32:39.314Z,1.10
2018-05-17T08:38:03.109Z,1.10
2018-05-17T08:40:38.644Z,1.30
2018-05-17T08:43:13.710Z,1.30
2018-05-17T08:45:43.698Z,1.10
2018-05-17T08:48:14.673Z,1.30
2018-05-17T08:50:45.457Z,1.30
2018-05-17T08:53:16.109Z,1.07
2018-05-17T08:55:46.780Z,1.23
2018-05-17T08:58:18.430Z,1.10
2018-05-17T09:00:49.026Z,0.93
2018-05-17T09:03:18.960Z,1.10
2018-05-17T09:05:49.098Z,1.00
2018-05-17T09:08:18.807Z,1.10
2018-05-17T09:13:40.792Z,1.10
2018-05-17T09:16:13.674Z,1.10
2018-05-17T09:18:43.819Z,1.10
2018-05-17T09:21:14.754Z,1.00
2018-05-17T09:23:45.008Z,1.00
2018-05-17T09:26:18.676Z,0.83
2018-05-17T09:28:49.438Z,0.90
2018-05-17T09:31:20.886Z,0.90
2018-05-17T09:33:53.074Z,1.03
2018-05-17T09:36:24.762Z,1.00
2018-05-17T09:38:57.318Z,1.20
2018-05-17T09:41:29.676Z,1.00
2018-05-17T09:44:01.462Z,0.77
2018-05-17T09:46:32.007Z,1.10
2018-05-17T09:49:02.149Z,1.20
2018-05-17T09:51:32.692Z,1.20
2018-05-17T09:54:03.122Z,1.27
2018-05-17T09:56:34.744Z,1.10
2018-05-17T09:59:05.584Z,1.50
2018-05-17T10:01:36.228Z,1.30
2018-05-17T10:04:06.288Z,1.30
2018-05-17T10:06:37.784Z,1.27
2018-05-17T10:09:09.092Z,1.37
2018-05-17T10:11:40.186Z,1.40
2018-05-17T10:14:09.860Z,1.50
2018-05-17T10:16:40.378Z,1.30
2018-05-17T10:19:11.412Z,2.07
2018-05-17T10:21:42.547Z,1.93
2018-05-17T10:24:13.658Z,1.63
2018-05-17T10:26:44.067Z,1.77
2018-05-17T10:29:14.448Z,1.57
2018-05-17T10:31:45.351Z,2.30
2018-05-17T10:34:15.677Z,1.67
2018-05-17T10:36:46.206Z,1.83
2018-05-17T10:39:16.639Z,1.80
2018-05-17T10:41:47.233Z,1.97
2018-05-17T10:44:19.373Z,2.40
2018-05-17T10:46:50.450Z,2.10
2018-05-17T10:49:20.992Z,2.00
2018-05-17T10:51:51.205Z,2.03
2018-05-17T10:54:21.324Z,1.80
2018-05-17T10:56:51.480Z,1.97
2018-05-17T10:59:21.869Z,1.90
2018-05-17T11:01:52.094Z,1.83
2018-05-17T11:04:22.109Z,1.57
2018-05-17T11:06:52.539Z,1.70
2018-05-17T11:09:22.563Z,1.60
2018-05-17T11:11:52.981Z,1.20
2018-05-17T11:14:23.100Z,1.40
2018-05-17T11:16:53.159Z,1.20
2018-05-17T11:19:23.661Z,1.20
2018-05-17T11:21:54.196Z,1.10
2018-05-17T11:24:24.434Z,1.30
2018-05-17T11:26:54.523Z,1.20
2018-05-17T11:29:24.760Z,0.90
2018-05-17T11:31:55.183Z,1.07
2018-05-17T11:34:25.431Z,1.10
2018-05-17T11:36:56.371Z,0.77
2018-05-17T11:39:26.431Z,1.00
2018-05-17T11:41:57.099Z,0.80
2018-05-17T11:44:27.307Z,0.73
2018-05-17T11:46:57.460Z,1.00
2018-05-17T11:49:28.171Z,0.93
2018-05-17T11:51:58.371Z,0.93
2018-05-17T11:54:28.515Z,0.90
2018-05-17T11:56:58.545Z,0.70
2018-05-17T11:59:28.655Z,0.80
2018-05-17T12:01:59.058Z,0.67
2018-05-17T12:04:29.483Z,0.80
2018-05-17T12:06:59.642Z,0.60
2018-05-17T12:09:29.829Z,0.83
2018-05-17T12:12:00.489Z,0.60
2018-05-17T12:14:30.898Z,0.70
2018-05-17T12:17:01.152Z,0.73
2018-05-17T12:19:31.510Z,0.60
2018-05-17T12:22:03.302Z,0.70
2018-05-17T12:24:33.629Z,0.60
2018-05-17T12:27:04.383Z,0.60
2018-05-17T12:29:34.994Z,0.80
2018-05-17T12:32:05.012Z,0.80
2018-05-17T12:34:35.627Z,0.90
2018-05-17T12:37:06.330Z,0.80
2018-05-17T12:39:36.629Z,0.60
2018-05-17T12:42:06.823Z,0.73
2018-05-17T12:44:37.445Z,0.70
2018-05-17T12:47:08.002Z,0.80
2018-05-17T12:49:38.777Z,0.87
2018-05-17T12:52:09.276Z,0.90
2018-05-17T12:54:39.474Z,0.80
2018-05-17T12:57:09.722Z,0.93
2018-05-17T12:59:40.549Z,0.90
2018-05-17T13:02:10.975Z,0.80
2018-05-17T13:04:41.416Z,0.90
2018-05-17T13:07:11.830Z,1.13
2018-05-17T13:09:43.143Z,0.73
2018-05-17T13:12:13.607Z,0.80
2018-05-17T13:14:44.028Z,0.60
2018-05-17T13:17:14.557Z,0.70
2018-05-17T13:19:44.899Z,0.67
2018-05-17T13:22:15.525Z,0.70
2018-05-17T13:24:46.036Z,0.60
2018-05-17T13:27:16.128Z,0.90
2018-05-17T13:29:46.475Z,0.70
2018-05-17T13:32:17.005Z,0.90
2018-05-17T13:34:47.638Z,0.70
2018-05-17T13:37:17.987Z,0.70
2018-05-17T13:39:49.629Z,0.60
2018-05-17T13:42:20.401Z,0.70
2018-05-17T13:44:51.552Z,0.90
2018-05-17T13:47:22.073Z,0.90
2018-05-17T13:49:52.352Z,0.80
2018-05-17T13:52:22.675Z,0.77
2018-05-17T13:54:53.047Z,0.70
2018-05-17T13:57:23.015Z,0.50
2018-05-17T13:59:53.748Z,0.70
2018-05-17T14:02:24.507Z,0.80
2018-05-17T14:04:54.625Z,0.60
2018-05-17T14:07:25.014Z,0.70
2018-05-17T14:09:55.178Z,0.70
2018-05-17T14:12:25.512Z,0.70
2018-05-17T14:14:55.607Z,0.80
2018-05-17T14:17:25.737Z,0.70
2018-05-17T14:19:55.863Z,0.70
2018-05-17T14:22:25.966Z,0.70
2018-05-17T14:24:56.318Z,0.60
2018-05-17T14:27:26.502Z,0.60
2018-05-17T14:29:56.942Z,1.03
2018-05-17T14:32:27.003Z,0.90
2018-05-17T14:34:57.554Z,0.80
2018-05-17T14:37:28.724Z,0.80
2018-05-17T14:39:58.875Z,0.80
2018-05-17T14:42:28.988Z,0.60
2018-05-17T14:44:59.018Z,0.90
2018-05-17T14:47:29.414Z,1.03
2018-05-17T14:49:59.814Z,0.70
2018-05-17T14:52:29.932Z,0.67
2018-05-17T14:55:00.119Z,0.67
2018-05-17T14:57:31.030Z,0.57
2018-05-17T15:00:01.148Z,0.73
2018-05-17T15:02:31.477Z,0.77
2018-05-17T15:05:01.820Z,0.97
2018-05-17T15:07:32.017Z,0.60
2018-05-17T15:10:02.164Z,0.97
2018-05-17T15:12:32.340Z,0.80
2018-05-17T15:15:03.864Z,0.70
2018-05-17T15:17:34.492Z,0.70
2018-05-17T15:20:05.277Z,0.77
2018-05-17T15:22:35.954Z,0.70
2018-05-17T15:25:07.654Z,0.87
2018-05-17T15:27:38.313Z,0.80
2018-05-17T15:30:08.537Z,0.87
2018-05-17T15:32:39.254Z,0.70
2018-05-17T15:35:10.494Z,0.83
2018-05-17T15:37:41.148Z,0.63
2018-05-17T15:40:12.236Z,0.73
2018-05-17T15:42:43.631Z,0.60
2018-05-17T15:45:15.034Z,0.70
2018-05-17T15:47:45.118Z,0.97
2018-05-17T15:50:15.354Z,0.70
2018-05-17T15:52:46.392Z,0.77
2018-05-17T15:55:16.936Z,0.80
2018-05-17T15:57:46.923Z,0.93
2018-05-17T16:00:19.494Z,0.90
2018-05-17T16:02:49.766Z,0.87
2018-05-17T16:05:20.243Z,0.97
2018-05-17T16:07:50.643Z,0.80
2018-05-17T16:10:20.946Z,1.17
2018-05-17T16:12:52.481Z,0.93
2018-05-17T16:15:23.244Z,0.80
2018-05-17T16:17:54.350Z,0.70
2018-05-17T16:20:25.369Z,0.93
2018-05-17T16:22:55.672Z,0.90
2018-05-17T16:25:26.010Z,0.70
2018-05-17T16:27:56.146Z,0.80
2018-05-17T16:30:27.279Z,0.83
2018-05-17T16:32:57.796Z,0.80
2018-05-17T16:35:27.955Z,0.60
2018-05-17T16:37:58.424Z,0.80
2018-05-17T16:40:28.765Z,0.90
2018-05-17T16:42:59.166Z,0.60
2018-05-17T16:45:29.223Z,0.70
2018-05-17T16:47:59.355Z,0.60
2018-05-17T16:50:30.409Z,0.77
2018-05-17T16:53:00.817Z,0.90
2018-05-17T16:55:30.949Z,0.83
2018-05-17T16:58:01.264Z,0.70
2018-05-17T17:00:31.754Z,0.60
2018-05-17T17:03:02.257Z,0.77
2018-05-17T17:05:33.182Z,0.70
2018-05-17T17:08:03.502Z,0.80
2018-05-17T17:10:34.119Z,0.50
2018-05-17T17:13:03.895Z,0.70
2018-05-17T17:15:33.671Z,0.60
2018-05-17T17:18:04.188Z,0.60
2018-05-17T17:20:35.919Z,0.60
2018-05-17T17:23:06.597Z,0.77
2018-05-17T17:25:37.111Z,0.70
2018-05-17T17:28:07.437Z,0.80
2018-05-17T17:30:38.450Z,0.70
2018-05-17T17:33:08.778Z,0.60
2018-05-17T17:35:39.408Z,0.70
2018-05-17T17:38:09.640Z,0.70
2018-05-17T17:40:45.007Z,0.70
2018-05-17T17:43:15.311Z,0.60
2018-05-17T17:45:45.940Z,0.50
2018-05-17T17:48:16.471Z,0.90
2018-05-17T17:50:46.687Z,0.90
2018-05-17T17:53:16.916Z,0.70
2018-05-17T17:55:47.226Z,0.70
2018-05-17T17:58:18.316Z,0.70
2018-05-17T18:00:48.782Z,0.70
2018-05-17T18:03:19.430Z,0.50
2018-05-17T18:05:49.855Z,0.80
2018-05-17T18:08:20.223Z,0.70
2018-05-17T18:10:51.053Z,1.00
2018-05-17T18:13:22.373Z,0.90
2018-05-17T18:15:52.830Z,0.90
2018-05-17T18:18:24.748Z,0.80
2018-05-17T18:20:54.995Z,0.93
2018-05-17T18:23:25.286Z,0.73
2018-05-17T18:25:55.408Z,0.60
2018-05-17T18:28:25.649Z,0.87
2018-05-17T18:30:56.138Z,0.80
2018-05-17T18:33:27.442Z,0.90
2018-05-17T18:35:57.558Z,0.97
2018-05-17T18:38:27.779Z,1.10
2018-05-17T18:40:57.927Z,1.10
2018-05-17T18:43:28.923Z,0.90
2018-05-17T18:45:59.168Z,0.83
2018-05-17T18:48:29.273Z,0.90
2018-05-17T18:51:00.058Z,1.00
2018-05-17T18:53:30.629Z,0.97
2018-05-17T18:56:00.417Z,0.80
2018-05-17T18:58:30.687Z,0.83
2018-05-17T19:01:00.820Z,0.80
2018-05-17T19:03:32.076Z,0.70
2018-05-17T19:06:02.706Z,0.87
2018-05-17T19:08:33.521Z,1.10
2018-05-17T19:11:04.274Z,0.60
2018-05-17T19:13:34.939Z,0.77
2018-05-17T19:16:06.234Z,1.23
2018-05-17T19:18:36.750Z,0.83
2018-05-17T19:21:07.279Z,1.10
2018-05-17T19:23:38.027Z,0.90
2018-05-17T19:26:09.068Z,1.00
2018-05-17T19:28:39.405Z,0.83
2018-05-17T19:31:09.718Z,0.90
2018-05-17T19:33:40.532Z,0.80
2018-05-17T19:36:11.398Z,0.80
2018-05-17T19:38:41.603Z,0.90
2018-05-17T19:41:11.722Z,1.00
2018-05-17T19:43:41.980Z,0.97
2018-05-17T19:46:13.102Z,0.80
2018-05-17T19:48:43.450Z,0.90
2018-05-17T19:51:13.569Z,0.90
2018-05-17T19:53:44.451Z,0.90
2018-05-17T19:56:14.916Z,1.03
2018-05-17T19:58:45.016Z,0.83
2018-05-17T20:01:15.716Z,1.07
2018-05-17T20:03:46.310Z,1.10
2018-05-17T20:06:16.699Z,0.90
2018-05-17T20:08:47.261Z,1.00
2018-05-17T20:11:17.807Z,1.17
2018-05-17T20:13:49.017Z,1.00
2018-05-17T20:16:19.439Z,1.37
2018-05-17T20:18:51.864Z,1.10
2018-05-17T20:21:23.539Z,1.27
2018-05-17T20:23:54.094Z,1.27
2018-05-17T20:26:24.226Z,1.50
2018-05-17T20:28:54.771Z,1.70
2018-05-17T20:31:25.159Z,1.67
2018-05-17T20:33:55.780Z,1.63
2018-05-17T20:36:26.547Z,1.93
2018-05-17T20:38:56.964Z,1.77
2018-05-17T20:41:27.725Z,1.70
2018-05-17T20:43:58.424Z,1.73
2018-05-17T20:46:28.181Z,1.87
2018-05-17T20:48:58.832Z,1.43
2018-05-17T20:51:29.385Z,1.97
2018-05-17T20:53:59.172Z,1.63
2018-05-17T20:56:30.821Z,1.80
2018-05-17T20:59:03.014Z,1.67
2018-05-17T21:01:36.392Z,2.33
2018-05-17T21:04:06.992Z,2.10
2018-05-17T21:06:36.897Z,1.80
2018-05-17T21:09:07.925Z,1.70
2018-05-17T21:11:38.437Z,2.00
2018-05-17T21:14:08.177Z,1.70
2018-05-17T21:16:37.986Z,1.97
2018-05-17T21:19:08.146Z,1.90
2018-05-17T21:21:39.790Z,1.80
2018-05-17T21:24:10.434Z,1.80
2018-05-17T21:26:41.329Z,1.63
2018-05-17T21:29:11.054Z,1.80
2018-05-17T21:31:40.881Z,1.47
2018-05-17T21:34:10.643Z,1.57
2018-05-17T21:36:40.387Z,2.00
2018-05-17T21:39:10.179Z,1.43
2018-05-17T21:41:39.955Z,1.20
2018-05-17T21:44:09.791Z,1.30
2018-05-17T21:46:39.683Z,1.90
2018-05-17T21:49:10.248Z,1.20
2018-05-17T21:51:40.098Z,1.30
2018-05-17T21:54:09.831Z,1.30
2018-05-17T21:56:40.133Z,1.60
2018-05-17T21:59:10.735Z,1.53
2018-05-17T22:01:41.465Z,1.40
2018-05-17T22:04:11.146Z,1.40
2018-05-17T22:06:42.255Z,1.50
2018-05-17T22:09:13.516Z,1.23
2018-05-17T22:11:44.081Z,1.30
2018-05-17T22:14:14.754Z,1.67
2018-05-17T22:16:45.358Z,1.40
2018-05-17T22:19:15.813Z,1.17
2018-05-17T22:21:45.837Z,1.57
2018-05-17T22:24:16.139Z,2.00
2018-05-17T22:26:47.424Z,1.70
2018-05-17T22:29:18.827Z,1.50
2018-05-17T22:31:49.263Z,1.47
2018-05-17T22:34:19.812Z,1.70
2018-05-17T22:36:49.952Z,1.40
2018-05-17T22:39:20.243Z,1.90
2018-05-17T22:41:50.374Z,1.47
2018-05-17T22:44:20.819Z,1.50
2018-05-17T22:46:51.098Z,1.40
2018-05-17T22:49:21.420Z,1.77
2018-05-17T22:51:51.786Z,1.40
2018-05-17T22:54:22.016Z,1.60
2018-05-17T22:57:03.464Z,1.50
2018-05-17T22:59:33.990Z,1.53
2018-05-17T23:02:04.871Z,1.70
2018-05-17T23:04:35.896Z,1.60
2018-05-17T23:07:06.122Z,1.30
2018-05-17T23:09:36.206Z,1.73
2018-05-17T23:12:07.531Z,1.47
2018-05-17T23:14:38.068Z,1.80
2018-05-17T23:17:08.531Z,1.57
2018-05-17T23:19:39.176Z,1.90
2018-05-17T23:22:10.495Z,1.80
2018-05-17T23:24:40.920Z,1.60
2018-05-17T23:27:11.756Z,1.97
2018-05-17T23:29:42.493Z,1.47
2018-05-17T23:32:13.242Z,1.23
2018-05-17T23:34:43.661Z,1.43
2018-05-17T23:37:21.475Z,1.70
2018-05-17T23:39:51.727Z,1.70
2018-05-17T23:42:21.946Z,1.50
2018-05-17T23:44:52.220Z,1.43
2018-05-17T23:47:22.663Z,1.80
2018-05-17T23:49:53.119Z,1.77
2018-05-17T23:52:23.515Z,1.40
2018-05-17T23:54:53.929Z,1.90
2018-05-17T23:57:24.166Z,2.10
2018-05-17T23:59:54.491Z,1.80
